createdAt,value
2024-04-08T00:00:46.592Z,0.00
2024-04-08T00:01:46.593Z,0.00
2024-04-08T00:02:46.555Z,0.00
2024-04-08T00:03:46.545Z,0.00
2024-04-08T00:04:46.528Z,0.00
2024-04-08T00:05:48.383Z,0.00
2024-04-08T00:06:46.552Z,0.00
2024-04-08T00:07:46.517Z,0.00
2024-04-08T00:08:46.480Z,0.00
2024-04-08T00:09:46.471Z,0.00
2024-04-08T00:10:46.463Z,0.00
2024-04-08T00:11:46.513Z,0.00
2024-04-08T00:12:46.415Z,0.00
2024-04-08T00:13:46.421Z,0.00
2024-04-08T00:14:46.398Z,0.00
2024-04-08T00:15:46.454Z,0.00
2024-04-08T00:16:46.391Z,0.00
2024-04-08T00:17:46.536Z,0.00
2024-04-08T00:18:46.377Z,0.00
2024-04-08T00:19:46.352Z,0.00
2024-04-08T00:20:46.355Z,0.00
2024-04-08T00:21:46.329Z,0.00
2024-04-08T00:22:46.329Z,0.00
2024-04-08T00:23:46.339Z,0.00
2024-04-08T00:24:46.293Z,0.00
2024-04-08T00:25:46.303Z,0.00
2024-04-08T00:26:46.308Z,0.00
2024-04-08T00:27:46.270Z,0.00
2024-04-08T00:28:46.361Z,0.00
2024-04-08T00:29:46.277Z,0.00
2024-04-08T00:30:46.239Z,0.00
2024-04-08T00:31:46.210Z,0.00
2024-04-08T00:32:46.290Z,0.00
2024-04-08T00:33:46.205Z,0.00
2024-04-08T00:34:46.204Z,0.00
2024-04-08T00:35:46.268Z,0.00
2024-04-08T00:36:46.168Z,0.00
2024-04-08T00:37:46.210Z,0.00
2024-04-08T00:38:46.230Z,0.00
2024-04-08T00:39:46.160Z,0.00
2024-04-08T00:40:46.123Z,0.00
2024-04-08T00:41:46.147Z,0.00
2024-04-08T00:42:46.121Z,0.00
2024-04-08T00:43:46.095Z,0.00
2024-04-08T00:44:46.089Z,0.00
2024-04-08T00:45:46.060Z,0.00
2024-04-08T00:46:46.059Z,0.00
2024-04-08T00:47:46.157Z,0.00
2024-04-08T00:48:46.026Z,0.00
2024-04-08T00:49:46.032Z,0.00
2024-04-08T00:50:46.090Z,0.00
2024-04-08T00:51:46.001Z,0.00
2024-04-08T00:52:46.118Z,0.00
2024-04-08T00:53:46.118Z,0.00
2024-04-08T00:54:46.014Z,0.00
2024-04-08T00:55:45.970Z,0.00
2024-04-08T00:56:46.041Z,0.00
2024-04-08T00:57:45.969Z,0.00
2024-04-08T00:58:45.945Z,0.00
2024-04-08T00:59:46.101Z,0.00
2024-04-08T01:00:45.904Z,0.00
2024-04-08T01:01:45.900Z,0.00
2024-04-08T01:02:45.977Z,0.00
2024-04-08T01:03:45.928Z,0.00
2024-04-08T01:04:45.984Z,0.00
2024-04-08T01:05:45.935Z,0.00
2024-04-08T01:06:46.041Z,0.00
2024-04-08T01:07:45.934Z,0.00
2024-04-08T01:08:46.870Z,0.00
2024-04-08T01:09:45.830Z,0.00
2024-04-08T01:10:45.876Z,0.00
2024-04-08T01:11:45.876Z,0.00
2024-04-08T01:12:45.867Z,0.00
2024-04-08T01:13:45.859Z,0.00
2024-04-08T01:14:45.851Z,0.00
2024-04-08T01:15:45.747Z,0.00
2024-04-08T01:16:45.747Z,0.00
2024-04-08T01:17:45.773Z,0.00
2024-04-08T01:18:45.804Z,0.00
2024-04-08T01:19:45.693Z,0.00
2024-04-08T01:20:45.730Z,0.00
2024-04-08T01:21:45.675Z,0.00
2024-04-08T01:22:45.706Z,0.00
2024-04-08T01:23:45.705Z,0.00
2024-04-08T01:24:45.665Z,0.00
2024-04-08T01:25:45.653Z,0.00
2024-04-08T01:26:45.798Z,0.00
2024-04-08T01:27:45.643Z,0.00
2024-04-08T01:28:45.640Z,0.00
2024-04-08T01:29:45.666Z,0.00
2024-04-08T01:30:45.631Z,0.00
2024-04-08T01:31:45.590Z,0.00
2024-04-08T01:32:45.621Z,0.00
2024-04-08T01:33:45.606Z,0.00
2024-04-08T01:34:45.551Z,0.00
2024-04-08T01:35:45.636Z,0.00
2024-04-08T01:36:45.529Z,0.00
2024-04-08T01:37:45.522Z,0.00
2024-04-08T01:38:45.583Z,0.00
2024-04-08T01:39:45.532Z,0.00
2024-04-08T01:40:45.521Z,0.00
2024-04-08T01:41:45.597Z,0.00
2024-04-08T01:42:45.581Z,0.00
2024-04-08T01:43:45.956Z,0.00
2024-04-08T01:44:45.498Z,0.00
2024-04-08T01:45:45.436Z,0.00
2024-04-08T01:46:45.622Z,0.00
2024-04-08T01:47:45.524Z,0.00
2024-04-08T01:48:45.442Z,0.00
2024-04-08T01:49:45.438Z,0.00
2024-04-08T01:50:45.444Z,0.00
2024-04-08T01:51:45.451Z,0.00
2024-04-08T01:52:45.385Z,0.00
2024-04-08T01:53:45.567Z,0.00
2024-04-08T01:54:45.409Z,0.00
2024-04-08T01:55:45.320Z,0.00
2024-04-08T01:56:45.432Z,0.00
2024-04-08T01:57:45.314Z,0.00
2024-04-08T01:58:45.347Z,0.00
2024-04-08T01:59:45.526Z,0.00
2024-04-08T02:00:45.286Z,0.00
2024-04-08T02:01:45.266Z,0.00
2024-04-08T02:02:45.322Z,0.00
2024-04-08T02:03:45.355Z,0.00
2024-04-08T02:04:45.342Z,0.00
2024-04-08T02:05:45.557Z,0.00
2024-04-08T02:06:45.243Z,0.00
2024-04-08T02:07:45.210Z,0.00
2024-04-08T02:08:45.334Z,0.00
2024-04-08T02:09:45.232Z,0.00
2024-04-08T02:10:45.171Z,0.00
2024-04-08T02:11:45.271Z,0.00
2024-04-08T02:12:45.178Z,0.00
2024-04-08T02:13:45.175Z,0.00
2024-04-08T02:14:45.176Z,0.00
2024-04-08T02:15:45.164Z,0.00
2024-04-08T02:16:45.173Z,0.00
2024-04-08T02:17:45.200Z,0.00
2024-04-08T02:18:45.091Z,0.00
2024-04-08T02:19:45.102Z,0.00
2024-04-08T02:20:45.151Z,0.00
2024-04-08T02:21:45.099Z,0.00
2024-04-08T02:22:45.100Z,0.00
2024-04-08T02:23:46.195Z,0.00
2024-04-08T02:24:45.046Z,0.00
2024-04-08T02:25:45.037Z,0.00
2024-04-08T02:26:45.108Z,0.00
2024-04-08T02:27:45.074Z,0.00
2024-04-08T02:28:45.067Z,0.00
2024-04-08T02:29:45.175Z,0.00
2024-04-08T02:30:44.990Z,0.00
2024-04-08T02:31:44.943Z,0.00
2024-04-08T02:32:45.119Z,0.00
2024-04-08T02:33:44.969Z,0.00
2024-04-08T02:34:44.935Z,0.00
2024-04-08T02:35:44.996Z,0.00
2024-04-08T02:36:44.947Z,0.00
2024-04-08T02:37:44.882Z,0.00
2024-04-08T02:38:45.058Z,0.00
2024-04-08T02:39:44.930Z,0.00
2024-04-08T02:40:44.864Z,0.00
2024-04-08T02:41:45.018Z,0.00
2024-04-08T02:42:44.969Z,0.00
2024-04-08T02:43:44.874Z,0.00
2024-04-08T02:44:44.893Z,0.00
2024-04-08T02:45:44.900Z,0.00
2024-04-08T02:46:44.978Z,0.00
2024-04-08T02:47:44.897Z,0.00
2024-04-08T02:48:44.807Z,0.00
2024-04-08T02:49:44.805Z,0.00
2024-04-08T02:50:44.876Z,0.00
2024-04-08T02:51:44.707Z,0.00
2024-04-08T02:52:44.799Z,0.00
2024-04-08T02:53:44.782Z,0.00
2024-04-08T02:54:44.841Z,0.00
2024-04-08T02:55:44.887Z,0.00
2024-04-08T02:56:44.815Z,0.00
2024-04-08T02:57:44.837Z,0.00
2024-04-08T02:58:44.727Z,0.00
2024-04-08T02:59:44.677Z,0.00
2024-04-08T03:00:44.757Z,0.00
2024-04-08T03:01:44.801Z,0.00
2024-04-08T03:02:44.819Z,0.00
2024-04-08T03:03:44.646Z,0.00
2024-04-08T03:04:44.612Z,0.00
2024-04-08T03:05:44.635Z,0.00
2024-04-08T03:06:44.620Z,0.00
2024-04-08T03:07:44.612Z,0.00
2024-04-08T03:08:44.649Z,0.00
2024-04-08T03:09:44.556Z,0.00
2024-04-08T03:10:45.603Z,0.00
2024-04-08T03:11:44.627Z,0.00
2024-04-08T03:12:44.619Z,0.00
2024-04-08T03:13:44.515Z,0.00
2024-04-08T03:14:44.589Z,0.00
2024-04-08T03:15:44.619Z,0.00
2024-04-08T03:16:44.498Z,0.00
2024-04-08T03:17:44.511Z,0.00
2024-04-08T03:18:44.486Z,0.00
2024-04-08T03:19:44.513Z,0.00
2024-04-08T03:20:44.496Z,0.00
2024-04-08T03:21:44.477Z,0.00
2024-04-08T03:22:46.924Z,0.00
2024-04-08T03:23:44.552Z,0.00
2024-04-08T03:24:44.413Z,0.00
2024-04-08T03:25:44.502Z,0.00
2024-04-08T03:26:44.412Z,0.00
2024-04-08T03:27:44.353Z,0.00
2024-04-08T03:28:44.387Z,0.00
2024-04-08T03:29:44.410Z,0.00
2024-04-08T03:30:44.367Z,0.00
2024-04-08T03:31:44.507Z,0.00
2024-04-08T03:32:44.359Z,0.00
2024-04-08T03:33:44.327Z,0.00
2024-04-08T03:34:44.377Z,0.00
2024-04-08T03:35:44.290Z,0.00
2024-04-08T03:36:44.271Z,0.00
2024-04-08T03:37:44.252Z,0.00
2024-04-08T03:38:45.330Z,0.00
2024-04-08T03:39:44.244Z,0.00
2024-04-08T03:40:44.226Z,0.00
2024-04-08T03:41:44.293Z,0.00
2024-04-08T03:42:44.221Z,0.00
2024-04-08T03:43:44.185Z,0.00
2024-04-08T03:44:44.195Z,0.00
2024-04-08T03:45:44.157Z,0.00
2024-04-08T03:46:44.174Z,0.00
2024-04-08T03:47:44.244Z,0.00
2024-04-08T03:48:44.190Z,0.00
2024-04-08T03:49:44.152Z,0.00
2024-04-08T03:50:44.146Z,0.00
2024-04-08T03:51:44.150Z,0.00
2024-04-08T03:52:44.081Z,0.00
2024-04-08T03:53:44.120Z,0.00
2024-04-08T03:54:44.128Z,0.00
2024-04-08T03:55:44.101Z,0.00
2024-04-08T03:56:44.102Z,0.00
2024-04-08T03:57:45.429Z,0.00
2024-04-08T03:58:44.030Z,0.00
2024-04-08T03:59:44.018Z,0.00
2024-04-08T04:00:44.105Z,0.00
2024-04-08T04:01:43.969Z,0.00
2024-04-08T04:02:44.001Z,0.00
2024-04-08T04:03:44.058Z,0.00
2024-04-08T04:04:44.008Z,0.00
2024-04-08T04:05:44.026Z,0.00
2024-04-08T04:06:43.908Z,0.00
2024-04-08T04:07:43.899Z,0.00
2024-04-08T04:08:43.929Z,0.00
2024-04-08T04:09:43.905Z,0.00
2024-04-08T04:10:43.939Z,0.00
2024-04-08T04:11:43.937Z,0.00
2024-04-08T04:12:43.842Z,0.00
2024-04-08T04:13:43.837Z,0.00
2024-04-08T04:14:44.663Z,0.00
2024-04-08T04:15:43.816Z,0.00
2024-04-08T04:16:43.836Z,4.00
2024-04-08T04:17:43.991Z,4.00
2024-04-08T04:18:43.836Z,4.00
2024-04-08T04:19:43.777Z,4.00
2024-04-08T04:20:43.830Z,8.00
2024-04-08T04:21:43.830Z,4.00
2024-04-08T04:22:43.754Z,8.00
2024-04-08T04:23:43.893Z,8.00
2024-04-08T04:24:43.764Z,12.00
2024-04-08T04:25:43.750Z,16.00
2024-04-08T04:26:43.765Z,16.00
2024-04-08T04:27:43.682Z,16.00
2024-04-08T04:28:43.667Z,20.00
2024-04-08T04:29:43.717Z,24.00
2024-04-08T04:30:43.656Z,32.00
2024-04-08T04:31:43.638Z,40.00
2024-04-08T04:32:43.980Z,44.00
2024-04-08T04:33:43.672Z,48.00
2024-04-08T04:34:43.611Z,56.00
2024-04-08T04:35:43.671Z,64.00
2024-04-08T04:36:43.618Z,76.00
2024-04-08T04:37:43.579Z,88.00
2024-04-08T04:38:43.661Z,100.00
2024-04-08T04:39:43.687Z,108.00
2024-04-08T04:40:43.641Z,120.00
2024-04-08T04:41:43.713Z,136.00
2024-04-08T04:42:43.852Z,152.00
2024-04-08T04:43:43.575Z,164.00
2024-04-08T04:44:43.595Z,184.00
2024-04-08T04:45:43.528Z,200.00
2024-04-08T04:46:43.475Z,216.00
2024-04-08T04:47:43.617Z,236.00
2024-04-08T04:48:44.464Z,260.00
2024-04-08T04:49:43.487Z,284.00
2024-04-08T04:50:43.417Z,308.00
2024-04-08T04:51:43.403Z,328.00
2024-04-08T04:52:43.428Z,352.00
2024-04-08T04:53:43.449Z,380.00
2024-04-08T04:54:43.414Z,408.00
2024-04-08T04:55:52.319Z,432.00
2024-04-08T04:56:45.114Z,464.00
2024-04-08T04:57:43.338Z,492.00
2024-04-08T04:58:43.326Z,524.00
2024-04-08T04:59:43.375Z,556.00
2024-04-08T05:00:43.354Z,588.00
2024-04-08T05:01:43.317Z,620.00
2024-04-08T05:02:43.302Z,652.00
2024-04-08T05:03:43.280Z,688.00
2024-04-08T05:04:43.261Z,728.00
2024-04-08T05:05:43.313Z,772.00
2024-04-08T05:06:43.237Z,820.00
2024-04-08T05:07:43.228Z,868.00
2024-04-08T05:08:43.256Z,920.00
2024-04-08T05:09:43.224Z,972.00
2024-04-08T05:10:43.268Z,1028.00
2024-04-08T05:11:43.271Z,1080.00
2024-04-08T05:12:43.258Z,1136.00
2024-04-08T05:13:43.166Z,1192.00
2024-04-08T05:14:43.266Z,1256.00
2024-04-08T05:15:43.137Z,1320.00
2024-04-08T05:16:43.118Z,1380.00
2024-04-08T05:17:43.162Z,1444.00
2024-04-08T05:18:43.107Z,1500.00
2024-04-08T05:19:43.300Z,1564.00
2024-04-08T05:20:43.114Z,1624.00
2024-04-08T05:21:43.064Z,1684.00
2024-04-08T05:22:43.148Z,1748.00
2024-04-08T05:23:43.094Z,1804.00
2024-04-08T05:24:43.040Z,1868.00
2024-04-08T05:25:43.036Z,1932.00
2024-04-08T05:26:43.039Z,2004.00
2024-04-08T05:27:43.015Z,2064.00
2024-04-08T05:28:43.006Z,2128.00
2024-04-08T05:29:43.010Z,2188.00
2024-04-08T05:30:42.968Z,2260.00
2024-04-08T05:31:42.951Z,2332.00
2024-04-08T05:32:43.058Z,2396.00
2024-04-08T05:33:42.938Z,2460.00
2024-04-08T05:34:42.936Z,2520.00
2024-04-08T05:35:42.952Z,2580.00
2024-04-08T05:36:42.904Z,2640.00
2024-04-08T05:37:42.901Z,2696.00
2024-04-08T05:38:42.902Z,2752.00
2024-04-08T05:39:42.901Z,2808.00
2024-04-08T05:40:42.887Z,2864.00
2024-04-08T05:41:42.886Z,2924.00
2024-04-08T05:42:42.893Z,2972.00
2024-04-08T05:43:42.856Z,3004.00
2024-04-08T05:44:42.839Z,3068.00
2024-04-08T05:45:42.824Z,3136.00
2024-04-08T05:46:42.785Z,3192.00
2024-04-08T05:47:42.830Z,3248.00
2024-04-08T05:48:42.772Z,3308.00
2024-04-08T05:49:42.808Z,3376.00
2024-04-08T05:50:42.767Z,3452.00
2024-04-08T05:51:42.745Z,3544.00
2024-04-08T05:52:42.730Z,3644.00
2024-04-08T05:53:42.732Z,3760.00
2024-04-08T05:54:42.710Z,3896.00
2024-04-08T05:55:42.723Z,4072.00
2024-04-08T05:56:42.705Z,4284.00
2024-04-08T05:57:42.687Z,4456.00
2024-04-08T05:58:42.662Z,4584.00
2024-04-08T05:59:42.689Z,4664.00
2024-04-08T06:00:42.649Z,4732.00
2024-04-08T06:01:42.678Z,4776.00
2024-04-08T06:02:42.666Z,4816.00
2024-04-08T06:03:42.609Z,4840.00
2024-04-08T06:04:42.591Z,4836.00
2024-04-08T06:05:42.704Z,4760.00
2024-04-08T06:06:42.603Z,4536.00
2024-04-08T06:07:42.604Z,4500.00
2024-04-08T06:08:42.592Z,4512.00
2024-04-08T06:09:42.548Z,4576.00
2024-04-08T06:10:42.533Z,4676.00
2024-04-08T06:11:43.717Z,4748.00
2024-04-08T06:12:42.531Z,4828.00
2024-04-08T06:13:42.544Z,4812.00
2024-04-08T06:14:42.507Z,4764.00
2024-04-08T06:15:42.481Z,4656.00
2024-04-08T06:16:42.466Z,4572.00
2024-04-08T06:17:42.469Z,4528.00
2024-04-08T06:18:42.454Z,4304.00
2024-04-08T06:19:42.461Z,4100.00
2024-04-08T06:20:42.453Z,3868.00
2024-04-08T06:21:42.422Z,3716.00
2024-04-08T06:22:42.399Z,3640.00
2024-04-08T06:23:42.396Z,3668.00
2024-04-08T06:24:42.373Z,3468.00
2024-04-08T06:25:42.406Z,3520.00
2024-04-08T06:26:42.392Z,3200.00
2024-04-08T06:27:42.344Z,2824.00
2024-04-08T06:28:42.333Z,2948.00
2024-04-08T06:29:42.356Z,3064.00
2024-04-08T06:30:42.341Z,2824.00
2024-04-08T06:31:42.332Z,2864.00
2024-04-08T06:32:42.406Z,2588.00
2024-04-08T06:33:43.240Z,2604.00
2024-04-08T06:34:42.269Z,2592.00
2024-04-08T06:35:42.277Z,2740.00
2024-04-08T06:36:42.245Z,2644.00
2024-04-08T06:37:42.280Z,2540.00
2024-04-08T06:38:42.255Z,2512.00
2024-04-08T06:39:42.220Z,2584.00
2024-04-08T06:40:42.211Z,2720.00
2024-04-08T06:41:42.233Z,2956.00
2024-04-08T06:42:42.182Z,2628.00
2024-04-08T06:43:42.209Z,2648.00
2024-04-08T06:44:44.496Z,2876.00
2024-04-08T06:45:42.180Z,3588.00
2024-04-08T06:46:42.128Z,4112.00
2024-04-08T06:47:42.158Z,3440.00
2024-04-08T06:48:42.106Z,3448.00
2024-04-08T06:49:42.136Z,3560.00
2024-04-08T06:50:42.137Z,3844.00
2024-04-08T06:51:42.084Z,4496.00
2024-04-08T06:52:42.057Z,4976.00
2024-04-08T06:53:42.093Z,5688.00
2024-04-08T06:54:42.058Z,5756.00
2024-04-08T06:55:42.063Z,5504.00
2024-04-08T06:56:42.079Z,5080.00
2024-04-08T06:57:42.019Z,4816.00
2024-04-08T06:58:42.001Z,4564.00
2024-04-08T06:59:42.018Z,4256.00
2024-04-08T07:00:43.473Z,3780.00
2024-04-08T07:01:42.020Z,4108.00
2024-04-08T07:02:41.970Z,4340.00
2024-04-08T07:03:41.935Z,4508.00
2024-04-08T07:04:41.928Z,4352.00
2024-04-08T07:05:42.026Z,4372.00
2024-04-08T07:06:41.916Z,4908.00
2024-04-08T07:07:41.901Z,5056.00
2024-04-08T07:08:41.892Z,5048.00
2024-04-08T07:09:41.902Z,5084.00
2024-04-08T07:10:41.898Z,5336.00
2024-04-08T07:11:41.910Z,5472.00
2024-04-08T07:12:41.844Z,5792.00
2024-04-08T07:13:41.868Z,5912.00
2024-04-08T07:14:41.858Z,5844.00
2024-04-08T07:15:44.133Z,5600.00
2024-04-08T07:16:41.839Z,5160.00
2024-04-08T07:17:41.864Z,4948.00
2024-04-08T07:18:41.781Z,5652.00
2024-04-08T07:19:41.778Z,5680.00
2024-04-08T07:20:41.782Z,5668.00
2024-04-08T07:21:41.758Z,5796.00
2024-04-08T07:22:41.739Z,5844.00
2024-04-08T07:23:41.760Z,5916.00
2024-04-08T07:24:41.719Z,5996.00
2024-04-08T07:25:41.711Z,6188.00
2024-04-08T07:26:41.709Z,6284.00
2024-04-08T07:27:41.693Z,6316.00
2024-04-08T07:28:41.679Z,6180.00
2024-04-08T07:29:41.705Z,6044.00
2024-04-08T07:30:41.675Z,6028.00
2024-04-08T07:31:41.635Z,6076.00
2024-04-08T07:32:41.708Z,5912.00
2024-04-08T07:33:41.623Z,5720.00
2024-04-08T07:34:41.608Z,5744.00
2024-04-08T07:35:41.601Z,5824.00
2024-04-08T07:36:41.566Z,5940.00
2024-04-08T07:37:41.568Z,6496.00
2024-04-08T07:38:57.288Z,6656.00
2024-04-08T07:39:42.560Z,6872.00
2024-04-08T07:40:41.523Z,6880.00
2024-04-08T07:41:41.591Z,7380.00
2024-04-08T07:42:41.524Z,7604.00
2024-04-08T07:43:41.503Z,7672.00
2024-04-08T07:44:41.529Z,7416.00
2024-04-08T07:45:43.713Z,7072.00
2024-04-08T07:46:41.485Z,7208.00
2024-04-08T07:47:41.552Z,7308.00
2024-04-08T07:48:41.455Z,7096.00
2024-04-08T07:49:41.447Z,6748.00
2024-04-08T07:50:41.570Z,6252.00
2024-04-08T07:51:41.426Z,6104.00
2024-04-08T07:52:41.414Z,6160.00
2024-04-08T07:53:41.464Z,6088.00
2024-04-08T07:54:41.391Z,6344.00
2024-04-08T07:55:41.402Z,6484.00
2024-04-08T07:56:41.426Z,6228.00
2024-04-08T07:57:41.363Z,6360.00
2024-04-08T07:58:41.352Z,6624.00
2024-04-08T07:59:41.348Z,6704.00
2024-04-08T08:00:45.071Z,7672.00
2024-04-08T08:01:42.370Z,8704.00
2024-04-08T08:02:41.332Z,8920.00
2024-04-08T08:03:41.298Z,9268.00
2024-04-08T08:04:41.274Z,9532.00
2024-04-08T08:05:41.288Z,9312.00
2024-04-08T08:06:41.277Z,8096.00
2024-04-08T08:07:41.274Z,6712.00
2024-04-08T08:08:41.245Z,6604.00
2024-04-08T08:09:41.233Z,7120.00
2024-04-08T08:10:41.225Z,7808.00
2024-04-08T08:11:41.215Z,9220.00
2024-04-08T08:12:41.184Z,10284.00
2024-04-08T08:13:41.228Z,10856.00
2024-04-08T08:14:41.230Z,11280.00
2024-04-08T08:15:41.183Z,10776.00
2024-04-08T08:16:41.346Z,10072.00
2024-04-08T08:17:41.212Z,9432.00
2024-04-08T08:18:41.344Z,8876.00
2024-04-08T08:19:41.134Z,9252.00
2024-04-08T08:20:41.135Z,9944.00
2024-04-08T08:21:41.093Z,9796.00
2024-04-08T08:22:41.075Z,8948.00
2024-04-08T08:23:41.104Z,8372.00
2024-04-08T08:24:41.065Z,8940.00
2024-04-08T08:25:41.066Z,9176.00
2024-04-08T08:26:41.080Z,9440.00
2024-04-08T08:27:41.046Z,8984.00
2024-04-08T08:28:41.030Z,9436.00
2024-04-08T08:29:41.057Z,10688.00
2024-04-08T08:30:40.997Z,12300.00
2024-04-08T08:31:41.017Z,13828.00
2024-04-08T08:32:40.992Z,13720.00
2024-04-08T08:33:40.963Z,14376.00
2024-04-08T08:34:40.942Z,15392.00
2024-04-08T08:35:41.008Z,15456.00
2024-04-08T08:36:40.931Z,15488.00
2024-04-08T08:37:42.314Z,16416.00
2024-04-08T08:38:40.947Z,17024.00
2024-04-08T08:39:40.910Z,16064.00
2024-04-08T08:40:40.883Z,13872.00
2024-04-08T08:41:41.082Z,12892.00
2024-04-08T08:42:40.867Z,12536.00
2024-04-08T08:43:40.904Z,12232.00
2024-04-08T08:44:40.903Z,11676.00
2024-04-08T08:45:40.854Z,11404.00
2024-04-08T08:46:40.808Z,11752.00
2024-04-08T08:47:40.971Z,12584.00
2024-04-08T08:48:40.796Z,13488.00
2024-04-08T08:49:40.800Z,13288.00
2024-04-08T08:50:40.886Z,12856.00
2024-04-08T08:51:40.756Z,12472.00
2024-04-08T08:52:40.752Z,12500.00
2024-04-08T08:53:40.771Z,12788.00
2024-04-08T08:54:40.738Z,13656.00
2024-04-08T08:55:40.753Z,14912.00
2024-04-08T08:56:40.734Z,14724.00
2024-04-08T08:57:40.695Z,15392.00
2024-04-08T08:58:40.723Z,16800.00
2024-04-08T08:59:40.717Z,16064.00
2024-04-08T09:00:40.697Z,15872.00
2024-04-08T09:01:40.683Z,15776.00
2024-04-08T09:02:40.687Z,16352.00
2024-04-08T09:03:40.639Z,15552.00
2024-04-08T09:04:40.618Z,14556.00
2024-04-08T09:05:40.684Z,13280.00
2024-04-08T09:06:40.597Z,13176.00
2024-04-08T09:07:40.610Z,13404.00
2024-04-08T09:08:40.600Z,13984.00
2024-04-08T09:09:40.563Z,14024.00
2024-04-08T09:10:40.556Z,14628.00
2024-04-08T09:11:40.541Z,14944.00
2024-04-08T09:12:40.539Z,14544.00
2024-04-08T09:13:40.550Z,15872.00
2024-04-08T09:14:40.567Z,17408.00
2024-04-08T09:15:40.494Z,16960.00
2024-04-08T09:16:40.482Z,15520.00
2024-04-08T09:17:40.554Z,15328.00
2024-04-08T09:18:40.470Z,15904.00
2024-04-08T09:19:40.466Z,15584.00
2024-04-08T09:20:40.560Z,13692.00
2024-04-08T09:21:41.723Z,14888.00
2024-04-08T09:22:40.419Z,14760.00
2024-04-08T09:23:40.457Z,15360.00
2024-04-08T09:24:40.408Z,14496.00
2024-04-08T09:25:40.438Z,14508.00
2024-04-08T09:26:40.607Z,15488.00
2024-04-08T09:27:40.376Z,15872.00
2024-04-08T09:28:40.353Z,16192.00
2024-04-08T09:29:40.439Z,16320.00
2024-04-08T09:30:40.355Z,17920.00
2024-04-08T09:31:40.369Z,16544.00
2024-04-08T09:32:40.489Z,16512.00
2024-04-08T09:33:40.327Z,15552.00
2024-04-08T09:34:40.289Z,15648.00
2024-04-08T09:35:40.397Z,15328.00
2024-04-08T09:36:40.286Z,15136.00
2024-04-08T09:37:40.290Z,14944.00
2024-04-08T09:38:40.314Z,14644.00
2024-04-08T09:39:40.236Z,14820.00
2024-04-08T09:40:40.294Z,13868.00
2024-04-08T09:41:40.251Z,13900.00
2024-04-08T09:42:40.236Z,14192.00
2024-04-08T09:43:40.278Z,14544.00
2024-04-08T09:44:40.229Z,16064.00
2024-04-08T09:45:40.198Z,16768.00
2024-04-08T09:46:40.166Z,19232.00
2024-04-08T09:47:40.193Z,19072.00
2024-04-08T09:48:40.150Z,19296.00
2024-04-08T09:49:47.882Z,18432.00
2024-04-08T09:50:41.138Z,18272.00
2024-04-08T09:51:40.112Z,17824.00
2024-04-08T09:52:40.099Z,16960.00
2024-04-08T09:53:40.098Z,16384.00
2024-04-08T09:54:40.101Z,15456.00
2024-04-08T09:55:40.126Z,13248.00
2024-04-08T09:56:40.060Z,13412.00
2024-04-08T09:57:40.038Z,14452.00
2024-04-08T09:58:40.024Z,13060.00
2024-04-08T09:59:40.012Z,14448.00
2024-04-08T10:00:40.044Z,15156.00
2024-04-08T10:01:40.045Z,18304.00
2024-04-08T10:02:40.035Z,18656.00
2024-04-08T10:03:40.005Z,17824.00
2024-04-08T10:04:39.984Z,18464.00
2024-04-08T10:05:39.954Z,18944.00
2024-04-08T10:06:39.941Z,19104.00
2024-04-08T10:07:39.964Z,17504.00
2024-04-08T10:08:39.918Z,18624.00
2024-04-08T10:09:39.939Z,19520.00
2024-04-08T10:10:39.945Z,19104.00
2024-04-08T10:11:39.913Z,18880.00
2024-04-08T10:12:39.911Z,19296.00
2024-04-08T10:13:39.947Z,19744.00
2024-04-08T10:14:39.865Z,19168.00
2024-04-08T10:15:39.843Z,19360.00
2024-04-08T10:16:39.840Z,19968.00
2024-04-08T10:17:39.840Z,19424.00
2024-04-08T10:18:39.860Z,19616.00
2024-04-08T10:19:39.865Z,20064.00
2024-04-08T10:20:39.806Z,19936.00
2024-04-08T10:21:39.777Z,19712.00
2024-04-08T10:22:39.769Z,18400.00
2024-04-08T10:24:41.292Z,16928.00
2024-04-08T10:25:39.790Z,16544.00
2024-04-08T10:26:39.766Z,16060.00
2024-04-08T10:27:39.725Z,15992.00
2024-04-08T10:28:39.738Z,16096.00
2024-04-08T10:29:40.666Z,16960.00
2024-04-08T10:30:40.644Z,17504.00
2024-04-08T10:31:39.659Z,16800.00
2024-04-08T10:32:39.714Z,16864.00
2024-04-08T10:33:39.687Z,18016.00
2024-04-08T10:34:39.657Z,20480.00
2024-04-08T10:35:39.651Z,20576.00
2024-04-08T10:36:39.626Z,20768.00
2024-04-08T10:37:39.661Z,20448.00
2024-04-08T10:38:39.645Z,20448.00
2024-04-08T10:39:39.601Z,20672.00
2024-04-08T10:40:39.796Z,20960.00
2024-04-08T10:41:39.591Z,20800.00
2024-04-08T10:42:39.557Z,21728.00
2024-04-08T10:43:39.539Z,22368.00
2024-04-08T10:44:39.526Z,23680.00
2024-04-08T10:45:39.525Z,24512.00
2024-04-08T10:46:39.518Z,21408.00
2024-04-08T10:47:39.548Z,20064.00
2024-04-08T10:48:39.506Z,21344.00
2024-04-08T10:49:39.473Z,22208.00
2024-04-08T10:50:39.467Z,23392.00
2024-04-08T10:51:39.441Z,23392.00
2024-04-08T10:52:39.745Z,23776.00
2024-04-08T10:53:39.667Z,26464.00
2024-04-08T10:54:39.443Z,32160.00
2024-04-08T10:55:39.415Z,34560.00
2024-04-08T10:56:39.405Z,37632.00
2024-04-08T10:57:39.399Z,40768.00
2024-04-08T10:58:39.374Z,43424.00
2024-04-08T10:59:39.371Z,42368.00
2024-04-08T11:00:39.466Z,40416.00
2024-04-08T11:01:39.364Z,40832.00
2024-04-08T11:02:39.361Z,43360.00
2024-04-08T11:03:39.341Z,47680.00
2024-04-08T11:04:39.316Z,49408.00
2024-04-08T11:05:39.297Z,49216.00
2024-04-08T11:06:39.291Z,47520.00
2024-04-08T11:07:39.292Z,46944.00
2024-04-08T11:08:39.284Z,46464.00
2024-04-08T11:09:39.247Z,46048.00
2024-04-08T11:10:39.251Z,45696.00
2024-04-08T11:11:39.241Z,50464.00
2024-04-08T11:12:39.222Z,47008.00
2024-04-08T11:13:39.209Z,47392.00
2024-04-08T11:14:39.226Z,38944.00
2024-04-08T11:15:39.202Z,38144.00
2024-04-08T11:16:39.178Z,50400.00
2024-04-08T11:17:39.204Z,47968.00
2024-04-08T11:18:39.316Z,54592.00
2024-04-08T11:19:39.152Z,55936.00
2024-04-08T11:20:39.149Z,55200.00
2024-04-08T11:21:39.143Z,52384.00
2024-04-08T11:22:39.121Z,52352.00
2024-04-08T11:23:39.102Z,52512.00
2024-04-08T11:24:39.109Z,51328.00
2024-04-08T11:25:39.079Z,49152.00
2024-04-08T11:26:48.667Z,50272.00
2024-04-08T11:27:40.201Z,52160.00
2024-04-08T11:28:39.059Z,49984.00
2024-04-08T11:29:39.050Z,48608.00
2024-04-08T11:30:39.044Z,44864.00
2024-04-08T11:31:39.038Z,43616.00
2024-04-08T11:32:39.088Z,33792.00
2024-04-08T11:33:39.076Z,41152.00
2024-04-08T11:34:38.988Z,43328.00
2024-04-08T11:35:38.982Z,41472.00
2024-04-08T11:36:39.203Z,40928.00
2024-04-08T11:37:40.310Z,40256.00
2024-04-08T11:38:38.949Z,41536.00
2024-04-08T11:39:38.982Z,42048.00
2024-04-08T11:40:38.931Z,43744.00
2024-04-08T11:41:38.909Z,46944.00
2024-04-08T11:42:39.259Z,48160.00
2024-04-08T11:43:40.125Z,50112.00
2024-04-08T11:44:38.876Z,50176.00
2024-04-08T11:45:39.013Z,48192.00
2024-04-08T11:46:38.911Z,52960.00
2024-04-08T11:47:38.923Z,49408.00
2024-04-08T11:48:38.884Z,50848.00
2024-04-08T11:49:39.660Z,50880.00
2024-04-08T11:50:38.828Z,52384.00
2024-04-08T11:51:38.827Z,50784.00
2024-04-08T11:52:38.810Z,49760.00
2024-04-08T11:53:38.778Z,52736.00
2024-04-08T11:54:49.728Z,54784.00
2024-04-08T11:55:39.758Z,55424.00
2024-04-08T11:56:38.752Z,58240.00
2024-04-08T11:57:38.741Z,59104.00
2024-04-08T11:58:38.744Z,60064.00
2024-04-08T11:59:38.723Z,57504.00
2024-04-08T12:00:38.778Z,55552.00
2024-04-08T12:01:39.539Z,54368.00
2024-04-08T12:02:38.685Z,50624.00
2024-04-08T12:03:38.686Z,48960.00
2024-04-08T12:04:38.661Z,59680.00
2024-04-08T12:05:38.679Z,65248.00
2024-04-08T12:06:38.653Z,64704.00
2024-04-08T12:07:39.665Z,68352.00
2024-04-08T12:08:38.617Z,60768.00
2024-04-08T12:09:38.618Z,61440.00
2024-04-08T12:10:38.604Z,59776.00
2024-04-08T12:11:38.642Z,51040.00
2024-04-08T12:12:38.576Z,31168.00
2024-04-08T12:13:39.334Z,37504.00
2024-04-08T12:14:38.563Z,62048.00
2024-04-08T12:15:38.556Z,39072.00
2024-04-08T12:16:38.552Z,35296.00
2024-04-08T12:17:38.531Z,63296.00
2024-04-08T12:18:38.562Z,39744.00
2024-04-08T12:19:39.812Z,36032.00
2024-04-08T12:20:38.542Z,32992.00
2024-04-08T12:21:38.492Z,34976.00
2024-04-08T12:22:38.486Z,31872.00
2024-04-08T12:23:38.499Z,48512.00
2024-04-08T12:24:38.463Z,64992.00
2024-04-08T12:25:38.453Z,43968.00